Time;durP1;ratioP1;P1;durP2;ratioP2;P2;SDS_P1;SDS_P2;PMS_P1;PMS_P2;Temp;Humidity;BMP_temperature;BMP_pressure;BME280_temperature;BME280_humidity;BME280_pressure;Samples;Min_cycle;Max_cycle;Signal;HPM_P1;HPM_P2
2021/01/21 00:02:22;;;;;;;22.77;5.45;;;12.60;74.90;;;;;;5073813;28;20517;-68
2021/01/21 00:04:48;;;;;;;22.73;5.55;;;12.50;74.80;;;;;;5074665;28;20104;-71
2021/01/21 00:07:24;;;;;;;23.13;5.13;;;12.50;75.00;;;;;;5074869;28;20058;-69
2021/01/21 00:09:50;;;;;;;28.13;5.43;;;12.60;74.90;;;;;;5074687;28;20017;-66
2021/01/21 00:12:16;;;;;;;22.20;5.07;;;12.60;75.10;;;;;;5074698;28;20081;-67
2021/01/21 00:14:41;;;;;;;26.00;5.13;;;12.50;75.10;;;;;;5075808;28;20092;-70
2021/01/21 00:17:07;;;;;;;23.83;4.93;;;12.50;75.00;;;;;;5076006;28;20041;-69
2021/01/21 00:19:34;;;;;;;28.20;5.15;;;12.50;75.10;;;;;;5074796;28;20411;-74
2021/01/21 00:21:59;;;;;;;21.73;4.93;;;12.50;75.10;;;;;;5075891;28;20028;-75
2021/01/21 00:24:25;;;;;;;20.50;5.03;;;12.50;75.10;;;;;;5078304;28;20020;-76
2021/01/21 00:26:51;;;;;;;24.85;5.38;;;12.50;75.10;;;;;;5080125;28;20040;-75
2021/01/21 00:29:17;;;;;;;20.38;4.70;;;12.50;75.30;;;;;;5091145;28;20046;-76
2021/01/21 00:31:43;;;;;;;29.33;5.25;;;12.50;75.30;;;;;;5094878;28;20029;-74
2021/01/21 00:34:09;;;;;;;29.00;5.15;;;12.50;75.20;;;;;;5092669;28;20441;-71
2021/01/21 00:36:35;;;;;;;22.95;5.15;;;12.50;75.40;;;;;;5086203;28;20032;-70
2021/01/21 00:39:00;;;;;;;25.70;4.70;;;12.50;75.40;;;;;;5083290;28;20043;-75
2021/01/21 00:41:26;;;;;;;24.77;5.45;;;12.50;75.10;;;;;;5076121;28;20020;-76
2021/01/21 00:43:52;;;;;;;22.35;4.82;;;12.50;75.40;;;;;;5074575;28;20119;-72
2021/01/21 00:46:17;;;;;;;21.50;4.80;;;12.50;75.10;;;;;;5074107;28;20013;-80
2021/01/21 00:48:45;;;;;;;25.45;4.80;;;12.40;75.20;;;;;;5073362;28;20380;-75
2021/01/21 00:51:11;;;;;;;29.42;5.75;;;12.50;75.30;;;;;;5073759;28;20461;-76
2021/01/21 00:53:37;;;;;;;19.10;4.10;;;12.50;75.40;;;;;;5073535;28;20028;-73
2021/01/21 00:56:04;;;;;;;29.40;5.30;;;12.50;75.50;;;;;;5073992;28;20033;-76
2021/01/21 00:58:29;;;;;;;25.42;4.97;;;12.40;75.30;;;;;;5073744;28;20016;-73
2021/01/21 01:00:55;;;;;;;22.58;4.22;;;12.40;75.50;;;;;;5073626;28;20028;-72
2021/01/21 01:03:21;;;;;;;28.50;5.95;;;12.40;75.60;;;;;;5073759;28;20028;-75
2021/01/21 01:05:46;;;;;;;25.20;4.75;;;12.40;75.40;;;;;;5072526;28;20078;-75
2021/01/21 01:08:12;;;;;;;27.30;5.18;;;12.40;75.60;;;;;;5073508;28;20034;-74
2021/01/21 01:10:40;;;;;;;21.38;4.30;;;12.40;75.50;;;;;;5088575;22;20468;-80
2021/01/21 01:13:09;;;;;;;27.23;5.95;;;12.40;75.40;;;;;;5075795;28;20080;-79
2021/01/21 01:15:35;;;;;;;26.67;4.93;;;12.40;75.30;;;;;;5076574;28;20028;-77
2021/01/21 01:18:02;;;;;;;28.25;5.28;;;12.50;75.50;;;;;;5075475;28;20028;-74
2021/01/21 01:20:29;;;;;;;21.33;4.60;;;12.50;75.00;;;;;;5075546;28;20025;-78
2021/01/21 01:22:55;;;;;;;22.80;4.10;;;12.50;75.10;;;;;;5074925;28;20440;-79
2021/01/21 01:25:22;;;;;;;26.80;4.95;;;12.50;75.30;;;;;;5074777;28;20039;-74
2021/01/21 01:27:48;;;;;;;25.00;5.18;;;12.40;75.20;;;;;;5073985;28;20056;-69
2021/01/21 01:30:16;;;;;;;21.42;4.75;;;12.50;75.10;;;;;;5073184;28;20100;-65
2021/01/21 01:32:45;;;;;;;24.40;5.22;;;12.40;74.90;;;;;;5072829;28;20024;-66
2021/01/21 01:35:10;;;;;;;20.35;4.35;;;12.40;74.80;;;;;;5073058;28;20031;-66
2021/01/21 01:37:39;;;;;;;22.40;5.05;;;12.50;74.90;;;;;;5073080;28;20036;-65
2021/01/21 01:40:09;;;;;;;20.42;4.82;;;12.50;75.00;;;;;;5073110;28;20029;-66
2021/01/21 01:42:35;;;;;;;19.15;4.70;;;12.50;74.70;;;;;;5073033;28;20082;-66
2021/01/21 01:45:01;;;;;;;23.05;4.82;;;12.50;74.70;;;;;;5073440;28;20424;-66
2021/01/21 01:47:28;;;;;;;26.83;5.10;;;12.50;74.70;;;;;;5071640;28;20051;-67
2021/01/21 01:49:56;;;;;;;20.05;4.10;;;12.50;74.60;;;;;;5072766;28;20032;-66
2021/01/21 01:52:24;;;;;;;23.90;5.13;;;12.50;74.50;;;;;;5071505;28;20537;-66
2021/01/21 01:54:51;;;;;;;25.23;4.80;;;12.50;74.50;;;;;;5071711;28;20477;-66
2021/01/21 01:57:18;;;;;;;28.33;5.13;;;12.60;74.70;;;;;;5072898;28;20040;-66
2021/01/21 01:59:46;;;;;;;19.38;5.07;;;12.60;74.50;;;;;;5071752;28;20025;-66
2021/01/21 02:02:11;;;;;;;19.67;5.05;;;12.60;74.70;;;;;;5072709;28;20374;-66
2021/01/21 02:04:37;;;;;;;29.65;4.70;;;12.50;74.30;;;;;;5071362;28;20027;-66
2021/01/21 02:07:03;;;;;;;22.98;4.50;;;12.60;74.40;;;;;;5072805;28;20494;-66
2021/01/21 02:09:31;;;;;;;23.83;4.53;;;12.50;74.40;;;;;;5072780;28;20029;-66
2021/01/21 02:12:21;;;;;;;17.98;4.93;;;12.50;74.30;;;;;;5073052;28;20401;-70
2021/01/21 02:14:56;;;;;;;15.95;4.20;;;12.50;74.40;;;;;;5072749;28;20380;-66
2021/01/21 02:17:36;;;;;;;23.27;4.85;;;12.50;74.40;;;;;;5072566;28;20099;-67
2021/01/21 02:20:37;;;;;;;21.95;4.97;;;12.50;74.70;;;;;;5072703;28;20063;-67
2021/01/21 02:23:21;;;;;;;26.60;5.45;;;12.40;74.50;;;;;;5072663;28;20055;-66
2021/01/21 02:25:59;;;;;;;26.85;5.20;;;12.50;74.50;;;;;;5072655;28;20412;-66
2021/01/21 02:28:45;;;;;;;24.33;4.20;;;12.50;74.80;;;;;;5072549;28;20465;-65
2021/01/21 02:31:56;;;;;;;25.27;4.75;;;12.50;74.80;;;;;;5072310;28;20555;-66
2021/01/21 02:34:52;;;;;;;27.95;4.18;;;12.40;74.80;;;;;;5061893;28;20060;-65
2021/01/21 02:37:26;;;;;;;22.25;4.93;;;12.40;75.00;;;;;;5072060;28;20052;-66
2021/01/21 02:40:00;;;;;;;26.08;5.55;;;12.40;74.90;;;;;;5072603;28;20028;-67
2021/01/21 02:42:30;;;;;;;19.95;5.50;;;12.40;75.00;;;;;;5074862;28;20036;-67
2021/01/21 02:44:56;;;;;;;30.70;5.90;;;12.40;74.80;;;;;;5076275;28;20070;-68
2021/01/21 02:47:22;;;;;;;18.60;4.95;;;12.30;74.90;;;;;;5074637;28;20032;-66
2021/01/21 02:49:50;;;;;;;25.30;5.72;;;12.40;75.10;;;;;;5074554;28;20029;-66
2021/01/21 02:52:42;;;;;;;31.45;5.97;;;12.40;75.00;;;;;;5075749;28;20064;-66
2021/01/21 02:55:26;;;;;;;25.83;5.68;;;12.40;74.70;;;;;;5075800;28;20024;-65
2021/01/21 02:58:11;;;;;;;;;;;12.40;74.80;;;;;;5076257;28;20043;-66
2021/01/21 03:00:39;;;;;;;25.73;4.93;;;12.40;74.80;;;;;;5075769;28;19965;-66
2021/01/21 03:03:12;;;;;;;28.52;5.43;;;12.40;75.10;;;;;;5075726;28;20048;-66
2021/01/21 03:05:40;;;;;;;22.23;5.07;;;12.40;75.00;;;;;;5075749;28;20473;-67
2021/01/21 03:08:07;;;;;;;24.63;4.78;;;12.40;75.20;;;;;;5075622;28;20385;-66
2021/01/21 03:10:33;;;;;;;23.05;5.32;;;12.40;75.30;;;;;;5075241;28;20551;-66
2021/01/21 03:12:59;;;;;;;27.73;4.93;;;12.40;75.30;;;;;;5074393;28;20486;-67
2021/01/21 03:15:25;;;;;;;22.10;5.28;;;12.40;75.40;;;;;;5074046;28;20032;-65
2021/01/21 03:17:51;;;;;;;25.23;4.38;;;12.50;75.10;;;;;;5075257;28;20551;-66
2021/01/21 03:20:17;;;;;;;28.65;5.00;;;12.50;75.30;;;;;;5074273;28;20029;-66
2021/01/21 03:22:43;;;;;;;28.38;5.35;;;12.50;75.70;;;;;;5075483;28;20078;-66
2021/01/21 03:25:10;;;;;;;22.35;5.32;;;12.50;75.50;;;;;;5075179;28;20104;-66
2021/01/21 03:27:36;;;;;;;27.88;5.60;;;12.50;75.30;;;;;;5075345;28;20659;-66
2021/01/21 03:30:04;;;;;;;30.08;5.13;;;12.50;75.50;;;;;;5075246;28;20111;-69
2021/01/21 03:32:29;;;;;;;26.80;5.63;;;12.50;75.50;;;;;;5075123;28;20025;-66
2021/01/21 03:34:55;;;;;;;22.33;5.00;;;12.50;75.50;;;;;;5075345;28;20035;-67
2021/01/21 03:37:21;;;;;;;28.88;5.72;;;12.50;75.80;;;;;;5075206;28;20086;-65
2021/01/21 03:39:46;;;;;;;22.85;4.65;;;12.50;75.90;;;;;;5075085;28;20025;-65
2021/01/21 03:42:13;;;;;;;27.58;4.90;;;12.50;76.00;;;;;;5074200;28;20095;-66
2021/01/21 03:44:41;;;;;;;25.55;5.13;;;12.60;75.70;;;;;;5075356;28;20033;-67
2021/01/21 03:47:07;;;;;;;28.65;5.70;;;12.50;75.70;;;;;;5074919;28;20482;-66
2021/01/21 03:49:33;;;;;;;29.00;5.20;;;12.50;75.80;;;;;;5074683;28;20031;-66
2021/01/21 03:51:59;;;;;;;29.35;5.70;;;12.60;75.60;;;;;;5074540;28;20427;-66
2021/01/21 03:54:26;;;;;;;36.05;5.57;;;12.60;75.60;;;;;;5074826;28;20043;-66
2021/01/21 03:56:53;;;;;;;29.15;5.50;;;12.60;75.70;;;;;;5074894;28;20028;-68
2021/01/21 03:59:20;;;;;;;32.95;5.15;;;12.60;75.80;;;;;;5074889;28;20033;-66
2021/01/21 04:01:46;;;;;;;24.23;5.38;;;12.60;75.70;;;;;;5074853;28;20032;-69
2021/01/21 04:04:12;;;;;;;25.02;5.32;;;12.60;75.80;;;;;;5074687;28;20020;-66
2021/01/21 04:06:38;;;;;;;34.70;5.35;;;12.60;76.30;;;;;;5074800;28;20449;-69
2021/01/21 04:09:05;;;;;;;26.17;4.97;;;12.70;76.10;;;;;;5074742;28;20031;-67
2021/01/21 04:11:31;;;;;;;29.52;6.13;;;12.70;76.20;;;;;;5073403;28;20151;-67
2021/01/21 04:13:57;;;;;;;29.55;4.85;;;12.70;76.40;;;;;;5074680;28;20115;-65
2021/01/21 04:16:25;;;;;;;28.52;6.00;;;12.70;76.30;;;;;;5074318;28;20028;-66
2021/01/21 04:18:50;;;;;;;35.70;5.93;;;12.70;76.50;;;;;;5074265;28;20032;-67
2021/01/21 04:21:16;;;;;;;30.05;5.63;;;12.70;76.50;;;;;;5074443;28;20089;-67
2021/01/21 04:23:42;;;;;;;27.80;5.82;;;12.70;76.40;;;;;;5074287;28;20023;-66
2021/01/21 04:26:07;;;;;;;27.80;5.35;;;12.70;76.60;;;;;;5074200;28;20424;-66
2021/01/21 04:28:33;;;;;;;36.20;6.45;;;12.70;76.80;;;;;;5074304;28;20096;-66
2021/01/21 04:30:59;;;;;;;30.30;6.03;;;12.70;76.90;;;;;;5073908;28;20029;-67
2021/01/21 04:33:24;;;;;;;29.25;5.47;;;12.60;77.20;;;;;;5074178;28;20021;-66
2021/01/21 04:35:51;;;;;;;28.77;5.43;;;12.60;76.80;;;;;;5073770;28;20466;-66
2021/01/21 04:38:16;;;;;;;29.75;5.97;;;12.60;76.70;;;;;;5074092;28;20037;-67
2021/01/21 04:40:43;;;;;;;26.90;5.07;;;12.60;77.00;;;;;;5074438;28;20029;-67
2021/01/21 04:43:09;;;;;;;29.08;6.07;;;12.60;77.00;;;;;;5074135;28;20082;-66
2021/01/21 04:45:35;;;;;;;27.98;5.25;;;12.60;77.20;;;;;;5072783;28;20028;-67
2021/01/21 04:48:02;;;;;;;38.65;6.10;;;12.60;77.30;;;;;;5074356;28;20017;-66
2021/01/21 04:50:29;;;;;;;41.22;6.63;;;12.60;77.40;;;;;;5073715;28;20479;-65
2021/01/21 04:52:57;;;;;;;33.10;5.95;;;12.60;77.20;;;;;;5073700;28;20063;-66
2021/01/21 04:55:48;;;;;;;27.65;6.10;;;12.70;77.20;;;;;;5073597;28;20062;-66
2021/01/21 04:58:25;;;;;;;33.20;5.78;;;12.70;77.40;;;;;;5073687;28;20028;-67
2021/01/21 05:00:52;;;;;;;33.60;6.55;;;12.70;77.00;;;;;;5073861;28;20024;-67
2021/01/21 05:03:20;;;;;;;34.45;5.85;;;12.70;77.30;;;;;;5073123;28;20477;-67
2021/01/21 05:05:46;;;;;;;25.45;5.38;;;12.70;77.30;;;;;;5073233;28;20486;-67
2021/01/21 05:08:12;;;;;;;32.10;5.70;;;12.70;77.30;;;;;;5073398;28;20055;-66
2021/01/21 05:10:38;;;;;;;36.13;6.88;;;12.80;77.30;;;;;;5073850;28;20461;-68
2021/01/21 05:13:05;;;;;;;29.00;5.90;;;12.80;77.30;;;;;;5073412;28;20027;-67
2021/01/21 05:15:32;;;;;;;28.45;5.20;;;12.80;77.20;;;;;;5073629;28;20028;-68
2021/01/21 05:18:00;;;;;;;29.75;5.90;;;12.80;77.20;;;;;;5073391;28;20040;-68
2021/01/21 05:20:28;;;;;;;27.48;5.53;;;12.80;77.40;;;;;;5073218;28;20676;-65
2021/01/21 05:23:18;;;;;;;26.60;5.72;;;12.90;77.40;;;;;;5073253;28;20020;-66
2021/01/21 05:25:45;;;;;;;27.52;5.43;;;12.90;77.10;;;;;;5072938;28;20025;-66
2021/01/21 05:28:11;;;;;;;27.85;5.75;;;12.90;77.30;;;;;;5071212;28;20032;-66
2021/01/21 05:30:36;;;;;;;30.55;6.57;;;12.90;77.30;;;;;;5072812;28;20050;-66
2021/01/21 05:33:03;;;;;;;28.27;5.97;;;12.90;77.20;;;;;;5072849;28;20522;-66
2021/01/21 05:35:30;;;;;;;34.17;6.10;;;12.90;77.10;;;;;;5073296;28;20096;-66
2021/01/21 05:38:00;;;;;;;35.97;6.38;;;13.00;77.60;;;;;;5073094;28;20071;-66
2021/01/21 05:40:30;;;;;;;33.15;5.97;;;12.90;77.50;;;;;;5072807;28;20028;-66
2021/01/21 05:42:57;;;;;;;30.77;5.38;;;12.90;77.50;;;;;;5072788;28;20032;-66
2021/01/21 05:45:24;;;;;;;29.58;5.55;;;12.90;77.40;;;;;;5072917;28;20396;-66
2021/01/21 05:48:01;;;;;;;37.25;6.00;;;13.00;77.50;;;;;;5072901;28;20025;-66
2021/01/21 05:50:29;;;;;;;31.38;5.65;;;12.90;77.90;;;;;;5072945;28;20096;-66
2021/01/21 05:53:00;;;;;;;34.60;5.82;;;12.90;77.40;;;;;;5072877;28;20465;-65
2021/01/21 05:55:27;;;;;;;24.80;5.85;;;13.00;77.60;;;;;;5071524;28;20052;-66
2021/01/21 05:57:54;;;;;;;34.58;5.95;;;13.00;77.40;;;;;;5072691;28;20036;-66
2021/01/21 06:00:22;;;;;;;37.47;6.63;;;13.00;77.60;;;;;;5071243;28;20021;-66
2021/01/21 06:02:53;;;;;;;30.52;5.65;;;13.00;77.70;;;;;;5072768;28;20028;-66
2021/01/21 06:05:21;;;;;;;31.92;6.07;;;13.00;77.70;;;;;;5072966;28;20063;-66
2021/01/21 06:07:48;;;;;;;38.25;6.20;;;13.00;77.90;;;;;;5072915;28;20028;-67
2021/01/21 06:10:16;;;;;;;29.05;5.82;;;13.00;77.70;;;;;;5072673;28;20513;-66
2021/01/21 06:12:52;;;;;;;29.85;6.13;;;13.00;77.80;;;;;;5073868;28;20032;-67
2021/01/21 06:15:19;;;;;;;28.20;6.18;;;13.00;77.80;;;;;;5075006;28;20031;-68
2021/01/21 06:17:49;;;;;;;32.03;5.20;;;13.00;78.10;;;;;;5077361;28;20028;-75
2021/01/21 06:20:16;;;;;;;22.50;5.18;;;13.00;78.10;;;;;;5077662;28;20021;-71
2021/01/21 06:22:47;;;;;;;29.20;6.10;;;13.00;78.00;;;;;;5077852;28;20035;-71
2021/01/21 06:25:18;;;;;;;27.42;6.53;;;13.10;77.80;;;;;;5078122;28;20036;-70
2021/01/21 06:27:46;;;;;;;23.42;5.88;;;13.10;77.90;;;;;;5078701;28;20471;-78
2021/01/21 06:30:15;;;;;;;24.58;5.28;;;13.10;78.10;;;;;;5077557;28;20056;-72
2021/01/21 06:33:01;;;;;;;33.13;6.45;;;13.10;78.10;;;;;;5076703;28;20094;-69
2021/01/21 06:35:38;;;;;;;29.80;5.68;;;13.10;78.10;;;;;;5075365;28;20152;-67
2021/01/21 06:38:13;;;;;;;30.60;6.22;;;13.10;78.20;;;;;;5077117;28;20084;-73
2021/01/21 06:40:41;;;;;;;31.02;6.22;;;13.10;78.00;;;;;;5077323;28;20031;-67
2021/01/21 06:43:16;;;;;;;34.15;5.55;;;13.10;78.20;;;;;;5076912;28;20028;-71
2021/01/21 06:45:43;;;;;;;37.17;7.53;;;13.10;78.40;;;;;;5074887;28;20040;-68
2021/01/21 06:48:10;;;;;;;41.95;6.03;;;13.20;78.60;;;;;;5075326;28;20497;-68
2021/01/21 06:50:38;;;;;;;23.85;5.38;;;13.20;78.50;;;;;;5075972;28;20043;-66
2021/01/21 06:53:06;;;;;;;31.80;6.07;;;13.20;78.30;;;;;;5076168;28;20061;-71
2021/01/21 06:55:35;;;;;;;35.17;6.53;;;13.20;78.50;;;;;;5075803;28;20032;-71
2021/01/21 06:58:01;;;;;;;32.50;6.63;;;13.20;78.50;;;;;;5075839;28;20573;-69
2021/01/21 07:00:46;;;;;;;30.88;6.35;;;13.20;78.70;;;;;;5075790;28;20025;-68
2021/01/21 07:03:33;;;;;;;31.15;5.53;;;13.20;78.40;;;;;;5075638;28;20028;-66
2021/01/21 07:06:00;;;;;;;26.73;5.40;;;13.20;78.70;;;;;;5075996;28;20020;-74
2021/01/21 07:08:27;;;;;;;32.70;7.35;;;13.30;78.70;;;;;;5075549;28;20039;-70
2021/01/21 07:11:00;;;;;;;35.75;7.03;;;13.30;78.80;;;;;;5075122;28;20049;-67
2021/01/21 07:13:29;;;;;;;31.25;6.03;;;13.30;78.70;;;;;;5075597;28;20036;-67
2021/01/21 07:16:02;;;;;;;36.38;6.75;;;13.30;78.70;;;;;;5077244;28;20016;-67
2021/01/21 07:18:35;;;;;;;27.35;5.88;;;13.30;78.70;;;;;;5075719;28;20035;-72
2021/01/21 07:21:09;;;;;;;34.40;6.50;;;13.40;78.40;;;;;;5074571;28;20035;-67
2021/01/21 07:23:52;;;;;;;22.88;4.57;;;13.40;78.40;;;;;;5075477;28;20028;-67
2021/01/21 07:26:44;;;;;;;30.65;6.40;;;13.50;78.50;;;;;;5074675;28;20077;-67
2021/01/21 07:29:15;;;;;;;28.67;4.97;;;13.60;78.40;;;;;;5073949;28;20054;-67
2021/01/21 07:31:56;;;;;;;29.17;5.40;;;13.60;78.00;;;;;;5073953;28;20410;-68
2021/01/21 07:34:40;;;;;;;38.97;6.03;;;13.70;77.80;;;;;;5075301;28;20028;-67
2021/01/21 07:37:27;;;;;;;34.47;7.57;;;13.70;77.80;;;;;;5074654;28;20369;-66
2021/01/21 07:40:12;;;;;;;34.92;6.00;;;13.80;77.80;;;;;;5074874;28;20025;-67
2021/01/21 07:42:44;;;;;;;34.60;6.32;;;13.80;77.50;;;;;;5073730;28;20032;-67
2021/01/21 07:45:16;;;;;;;26.65;5.07;;;13.90;77.20;;;;;;5074564;28;20115;-67
2021/01/21 07:47:43;;;;;;;24.95;5.03;;;13.90;77.10;;;;;;5074705;28;20036;-67
2021/01/21 07:50:25;;;;;;;29.45;5.30;;;14.00;77.60;;;;;;5075447;28;20047;-68
2021/01/21 07:52:52;;;;;;;33.17;6.13;;;14.00;77.50;;;;;;5074769;28;20024;-67
2021/01/21 07:55:34;;;;;;;36.20;7.70;;;14.00;77.40;;;;;;5074519;28;20046;-66
2021/01/21 07:58:38;;;;;;;37.47;7.40;;;14.00;77.40;;;;;;5072948;28;20032;-66
2021/01/21 08:01:08;;;;;;;33.13;6.28;;;14.10;77.30;;;;;;5072959;28;20473;-66
2021/01/21 08:03:40;;;;;;;32.40;6.32;;;14.10;77.30;;;;;;5073149;28;20082;-66
2021/01/21 08:06:12;;;;;;;34.03;6.35;;;14.10;77.00;;;;;;5073095;28;20028;-70
2021/01/21 08:08:40;;;;;;;32.67;5.93;;;14.20;76.80;;;;;;5074183;28;20082;-68
2021/01/21 08:11:09;;;;;;;26.77;5.68;;;14.20;76.90;;;;;;5074053;28;20424;-71
2021/01/21 08:13:35;;;;;;;27.52;5.97;;;14.20;77.40;;;;;;5073071;28;20032;-67
2021/01/21 08:16:02;;;;;;;29.88;5.85;;;14.20;77.30;;;;;;5074399;28;20036;-66
2021/01/21 08:18:28;;;;;;;30.80;5.78;;;14.20;77.10;;;;;;5075150;28;20025;-68
2021/01/21 08:20:54;;;;;;;30.02;5.97;;;14.30;77.20;;;;;;5073620;28;20418;-72
2021/01/21 08:23:20;;;;;;;36.08;6.40;;;14.30;77.20;;;;;;5074924;28;20028;-66
2021/01/21 08:25:55;;;;;;;33.20;7.20;;;14.30;77.40;;;;;;5075165;28;20117;-70
2021/01/21 08:28:30;;;;;;;24.00;5.28;;;14.30;77.20;;;;;;5074775;28;20024;-69
2021/01/21 08:30:56;;;;;;;38.30;6.53;;;14.30;77.20;;;;;;5074081;28;20036;-67
2021/01/21 08:33:26;;;;;;;30.83;5.95;;;14.30;76.90;;;;;;5073646;28;20107;-67
2021/01/21 08:36:04;;;;;;;434.77;34.70;;;14.40;76.80;;;;;;5075726;28;20036;-78
2021/01/21 08:38:35;;;;;;;62.92;9.82;;;14.40;76.90;;;;;;5074649;28;20032;-69
2021/01/21 08:41:03;;;;;;;32.70;6.00;;;14.50;77.40;;;;;;5076594;28;20032;-65
2021/01/21 08:43:30;;;;;;;31.40;5.38;;;14.50;76.60;;;;;;5074574;28;20035;-72
2021/01/21 08:45:56;;;;;;;47.60;6.70;;;14.50;76.40;;;;;;5073721;28;20028;-72
2021/01/21 08:48:29;;;;;;;36.65;6.90;;;14.50;76.40;;;;;;5075144;28;20020;-66
2021/01/21 08:50:55;;;;;;;34.78;5.88;;;14.50;76.40;;;;;;5076405;28;20111;-71
2021/01/21 08:53:27;;;;;;;37.10;5.93;;;14.50;76.10;;;;;;5077282;28;20078;-66
2021/01/21 08:55:56;;;;;;;31.58;7.05;;;14.60;76.20;;;;;;5083434;28;20091;-67
2021/01/21 08:58:33;;;;;;;37.92;5.82;;;14.60;76.00;;;;;;5084234;28;20651;-68
2021/01/21 09:01:03;;;;;;;32.90;8.02;;;14.60;75.90;;;;;;5076314;28;20028;-67
2021/01/21 09:03:32;;;;;;;33.05;6.93;;;14.70;76.00;;;;;;5076850;28;20104;-71
2021/01/21 09:06:00;;;;;;;33.22;6.65;;;14.80;75.80;;;;;;5074628;28;20060;-64
2021/01/21 09:08:25;;;;;;;31.95;6.90;;;14.70;75.60;;;;;;5073063;28;20041;-67
2021/01/21 09:10:56;;;;;;;31.40;6.28;;;14.80;75.70;;;;;;5073410;28;20143;-69
2021/01/21 09:13:22;;;;;;;38.85;7.13;;;14.90;75.40;;;;;;5073623;28;20021;-68
2021/01/21 09:15:58;;;;;;;31.60;6.60;;;14.90;75.30;;;;;;5072918;28;20048;-68
2021/01/21 09:18:47;;;;;;;29.27;6.28;;;15.00;75.50;;;;;;5074203;28;20041;-72
2021/01/21 09:21:17;;;;;;;38.38;7.28;;;15.00;75.00;;;;;;5073306;28;20039;-68
2021/01/21 09:23:43;;;;;;;37.50;7.05;;;15.00;74.70;;;;;;5072330;28;20536;-69
2021/01/21 09:26:13;;;;;;;35.83;7.80;;;15.10;74.70;;;;;;5073657;28;20033;-73
2021/01/21 09:28:56;;;;;;;34.05;7.22;;;15.10;74.50;;;;;;5074040;28;20024;-66
2021/01/21 09:31:23;;;;;;;42.83;7.30;;;15.20;74.40;;;;;;5072931;28;20028;-75
2021/01/21 09:33:51;;;;;;;38.67;7.13;;;15.20;74.30;;;;;;5073620;28;20021;-71
2021/01/21 09:36:16;;;;;;;37.67;7.85;;;15.30;74.00;;;;;;5073041;28;20034;-73
2021/01/21 09:38:42;;;;;;;32.50;6.40;;;15.40;74.10;;;;;;5072811;28;20039;-66
2021/01/21 09:41:08;;;;;;;35.17;7.03;;;15.40;73.70;;;;;;5073088;28;20032;-67
2021/01/21 09:43:33;;;;;;;35.72;6.10;;;15.50;73.30;;;;;;5073371;28;20183;-66
2021/01/21 09:46:02;;;;;;;36.67;7.10;;;15.60;73.20;;;;;;5072205;28;20484;-71
2021/01/21 09:48:28;;;;;;;32.08;6.55;;;15.60;73.00;;;;;;5075677;28;20024;-66
2021/01/21 09:50:54;;;;;;;33.85;7.40;;;15.70;73.20;;;;;;5078439;28;20035;-67
2021/01/21 09:53:20;;;;;;;39.20;6.82;;;15.70;72.90;;;;;;5079073;28;20031;-68
2021/01/21 09:55:45;;;;;;;38.03;6.72;;;15.70;73.00;;;;;;5078708;28;20446;-70
2021/01/21 09:58:11;;;;;;;30.63;6.80;;;15.70;72.80;;;;;;5078560;28;20044;-68
2021/01/21 10:00:36;;;;;;;30.27;7.05;;;15.70;72.40;;;;;;5078992;28;20032;-67
2021/01/21 10:03:03;;;;;;;36.75;6.90;;;15.70;72.60;;;;;;5078412;28;20032;-69
2021/01/21 10:05:28;;;;;;;36.72;6.63;;;15.70;72.60;;;;;;5078096;28;20020;-67
2021/01/21 10:07:54;;;;;;;38.25;6.70;;;15.70;72.60;;;;;;5077924;28;20377;-67
2021/01/21 10:10:20;;;;;;;33.63;6.40;;;15.70;72.60;;;;;;5077437;28;20485;-66
2021/01/21 10:12:45;;;;;;;29.27;7.10;;;15.70;72.70;;;;;;5077052;28;20608;-67
2021/01/21 10:15:11;;;;;;;34.05;6.82;;;15.70;72.60;;;;;;5076659;28;20025;-68
2021/01/21 10:17:37;;;;;;;31.38;6.18;;;15.70;72.80;;;;;;5076603;28;20152;-68
2021/01/21 10:20:04;;;;;;;37.22;6.88;;;15.70;72.50;;;;;;5076678;28;20055;-68
2021/01/21 10:22:30;;;;;;;34.25;7.53;;;15.70;72.80;;;;;;5076057;28;20051;-66
2021/01/21 10:24:57;;;;;;;33.67;6.40;;;15.70;72.40;;;;;;5075289;28;20482;-68
2021/01/21 10:27:27;;;;;;;28.13;5.90;;;15.80;73.10;;;;;;5081695;28;20094;-69
2021/01/21 10:29:54;;;;;;;35.47;7.03;;;15.80;72.70;;;;;;5083725;28;20396;-74
2021/01/21 10:32:20;;;;;;;37.55;7.07;;;15.80;72.60;;;;;;5076590;28;20025;-70
2021/01/21 10:34:46;;;;;;;36.55;7.25;;;15.80;72.30;;;;;;5074093;28;20031;-68
2021/01/21 10:37:12;;;;;;;30.10;6.80;;;15.90;72.50;;;;;;5075950;28;20028;-66
2021/01/21 10:39:38;;;;;;;32.25;7.10;;;15.90;72.10;;;;;;5076018;28;20082;-67
2021/01/21 10:42:04;;;;;;;31.25;6.20;;;15.90;71.90;;;;;;5075760;28;20027;-73
2021/01/21 10:44:30;;;;;;;39.28;6.60;;;16.00;72.10;;;;;;5075605;28;20492;-70
2021/01/21 10:46:55;;;;;;;40.53;7.10;;;16.00;71.80;;;;;;5075472;28;20021;-70
2021/01/21 10:49:21;;;;;;;33.03;6.43;;;16.10;71.80;;;;;;5075548;28;20454;-75
2021/01/21 10:51:47;;;;;;;39.45;7.05;;;16.10;72.00;;;;;;5074689;28;20063;-65
2021/01/21 10:54:14;;;;;;;32.22;6.70;;;16.10;72.00;;;;;;5076275;28;20035;-69
2021/01/21 10:56:40;;;;;;;36.75;7.43;;;16.20;72.70;;;;;;5074067;28;20412;-76
2021/01/21 10:59:06;;;;;;;38.80;6.93;;;16.30;71.80;;;;;;5075723;28;20021;-70
2021/01/21 11:01:33;;;;;;;36.13;6.78;;;16.30;71.80;;;;;;5056666;28;20029;-70
2021/01/21 11:03:59;;;;;;;31.92;6.43;;;16.40;71.20;;;;;;5075834;28;20356;-75
2021/01/21 11:06:25;;;;;;;37.97;7.50;;;16.40;70.90;;;;;;5073521;28;20107;-77
2021/01/21 11:08:50;;;;;;;31.23;6.57;;;16.60;70.90;;;;;;5074866;28;20429;-67
2021/01/21 11:11:16;;;;;;;42.17;7.53;;;16.70;70.30;;;;;;5074909;28;20044;-68
2021/01/21 11:13:42;;;;;;;28.38;6.32;;;16.80;69.70;;;;;;5074983;28;20032;-68
2021/01/21 11:16:09;;;;;;;31.95;6.55;;;16.90;69.10;;;;;;5074612;28;20478;-72
2021/01/21 11:18:35;;;;;;;29.80;5.88;;;17.00;69.10;;;;;;5074594;28;20094;-69
2021/01/21 11:21:01;;;;;;;32.55;6.25;;;17.10;68.50;;;;;;5074803;28;20028;-69
2021/01/21 11:23:27;;;;;;;43.35;7.75;;;17.20;68.60;;;;;;5073496;28;20028;-66
2021/01/21 11:25:52;;;;;;;27.83;5.38;;;17.10;68.30;;;;;;5074591;28;20016;-68
2021/01/21 11:28:20;;;;;;;32.15;6.25;;;17.10;68.10;;;;;;5073319;28;20368;-75
2021/01/21 11:30:50;;;;;;;29.63;6.25;;;17.10;68.00;;;;;;5074506;28;20481;-66
2021/01/21 11:33:18;;;;;;;32.85;6.63;;;17.10;68.60;;;;;;5074946;28;20091;-66
2021/01/21 11:35:45;;;;;;;24.25;5.90;;;17.20;68.60;;;;;;5073552;28;20068;-69
2021/01/21 11:38:11;;;;;;;30.85;5.45;;;17.10;67.30;;;;;;5074747;28;20033;-67
2021/01/21 11:40:37;;;;;;;29.13;6.88;;;17.10;67.30;;;;;;5073332;28;20056;-69
2021/01/21 11:43:07;;;;;;;29.02;6.50;;;17.10;67.40;;;;;;5074662;28;20188;-65
2021/01/21 11:45:32;;;;;;;31.85;6.53;;;17.10;68.20;;;;;;5074475;28;20442;-67
2021/01/21 11:47:58;;;;;;;33.75;7.65;;;17.10;67.60;;;;;;5074164;28;20115;-68
2021/01/21 11:50:24;;;;;;;33.17;6.78;;;17.00;67.90;;;;;;5074105;28;20025;-69
2021/01/21 11:52:49;;;;;;;26.83;6.03;;;16.90;67.90;;;;;;5074283;28;20090;-74
2021/01/21 11:55:15;;;;;;;36.55;7.72;;;16.90;67.90;;;;;;5074553;28;20020;-64
2021/01/21 11:57:44;;;;;;;29.20;5.50;;;16.80;68.10;;;;;;5055915;28;20036;-66
2021/01/21 12:00:12;;;;;;;28.80;5.90;;;16.70;67.90;;;;;;5073583;28;20021;-70
2021/01/21 12:02:39;;;;;;;25.70;5.82;;;16.70;68.30;;;;;;5073888;28;20020;-69
2021/01/21 12:05:06;;;;;;;31.83;6.55;;;16.60;67.90;;;;;;5074035;28;20017;-71
2021/01/21 12:07:32;;;;;;;33.95;6.38;;;16.50;68.10;;;;;;5073941;28;20389;-70
2021/01/21 12:09:57;;;;;;;30.60;6.20;;;16.50;68.20;;;;;;5074021;28;20028;-66
2021/01/21 12:12:24;;;;;;;31.30;7.28;;;16.50;68.30;;;;;;5073575;28;20078;-69
2021/01/21 12:14:50;;;;;;;40.78;6.78;;;16.40;68.50;;;;;;5072763;28;20091;-69
2021/01/21 12:17:16;;;;;;;30.08;6.32;;;16.50;68.90;;;;;;5073777;28;20040;-66
2021/01/21 12:19:43;;;;;;;30.27;5.82;;;16.40;68.70;;;;;;5073684;28;20029;-76
2021/01/21 12:22:08;;;;;;;35.03;7.22;;;16.40;68.50;;;;;;5074060;28;20028;-70
2021/01/21 12:24:35;;;;;;;33.03;7.28;;;16.40;69.00;;;;;;5073518;28;20027;-67
2021/01/21 12:27:01;;;;;;;29.13;7.15;;;16.40;69.00;;;;;;5073535;28;20028;-68
2021/01/21 12:29:27;;;;;;;29.13;6.82;;;16.40;68.80;;;;;;5073373;28;20017;-67
2021/01/21 12:31:53;;;;;;;27.48;6.60;;;16.30;68.40;;;;;;5073633;28;20462;-67
2021/01/21 12:34:19;;;;;;;26.95;6.57;;;16.30;68.90;;;;;;5073208;28;20333;-67
2021/01/21 12:36:47;;;;;;;27.70;6.50;;;16.30;68.60;;;;;;5073318;28;20142;-65
2021/01/21 12:39:12;;;;;;;27.65;6.60;;;16.30;68.70;;;;;;5071795;28;20082;-71
2021/01/21 12:41:38;;;;;;;34.33;7.68;;;16.30;69.20;;;;;;5073361;28;20024;-68
2021/01/21 12:44:04;;;;;;;30.02;6.38;;;16.20;69.10;;;;;;5073365;28;20028;-70
2021/01/21 12:46:30;;;;;;;34.65;7.00;;;16.20;69.30;;;;;;5073377;28;20553;-68
2021/01/21 12:48:56;;;;;;;30.60;5.80;;;16.30;69.30;;;;;;5073495;28;20442;-69